Aérodrome :
LOGIN :

S'inscrire | Disclaimer

   EN    FR    IT 

 










Légende :    VFR   VFR Marginal   IFR   IFR Intensif   IFR Très Intensif
Visi : 
Plafond : 
>= 8 km
>= 3000ft
5 à 8 km
1000 à 3000 ft
1500m à 5 km
500 à 1000 ft
800 à 1500m
200 à 500 ft
< 800m
< 200 ft
Symboles :   Orages  Brouillard  Fortes neiges  Fortes précipitations  Vent > 20 kt
SIGMETs :   Divers  Orages  Givrage  Turbulence  Onde Orograph.  Cendres Volcan.







- Altitude de l'aérodrome : 1187 ft


LIBV - Gioia del Colle Bari

DERNIER METAR :
  • 270655Z 16007KT CAVOK 19/10 Q1013 RMK SKC VIS MIN 9999 WIND THR32 16006KT WIND THR14 17007KT BLU

METARs EXPIRÉS :
  • 270555Z 35001KT CAVOK 15/11 Q1013 RMK SKC VIS MIN 9999 WIND THR32 19002KT WIND THR14 36002KT BLU
  • 270455Z 28001KT CAVOK 11/08 Q1012 RMK SKC VIS MIN 9999 WIND THR32 08003KT WIND THR14 28001KT BLU

TAF TAF LIBV
Valide du 27 à 06h jusqu'au 27 à 15h UTC


270500Z 2706/2715 09005KT CAVOK
TEMPO 2711/2715 14006KT 9999 SCT025
Pas de NOTAMs connus pour ce terrain.



MET'MAP, la Météo Aéronautique d'un coup d'oeil ! - Copyright ORBIFLY Décembre 2007 - Disclaimer

ORBIFLY MET'MAP TEAM :

Programmation & Développement : Alexandra Zaïnal
Conception & Développement : Baudouin d'Aumeries
Co-Programmation & Développement : Marc-Olivier Méhu
Soutien technique & logistique : Manuel Goepfert

Contact : metmap@orbifly.com




SOURCES & CREDITS :

   NOAA